Terminal Aerodrome Forecast
Issued by NWS

Home | Current Version | Previous Version | Text Only | Print | Product List | Glossary On
Versions: 1 2 3 4 5 6 7 8 9 10 11 12 13 14 15 16 17 18 19 20 21 22 23 24 25 26 27 28 29 30 31 32 33 34 35
511
FTUS45 KBOU 262339
TAFBJC
TAF
KBJC 262339Z 2700/2724 35011KT P6SM SCT050 BKN090
     FM270500 33011KT P6SM -SHRA BKN025 OVC040
     FM271200 32009KT P6SM VCSH BKN008 OVC016
     FM271600 03010KT P6SM VCSH SCT010 BKN020
     FM271800 02010KT P6SM SCT020 BKN040=

USA.gov is the U.S. government's official web portal to all federal, state and local government web resources and services.